sensor_id;sensor_type;location;lat;lon;timestamp;P1;durP1;ratioP1;P2;durP2;ratioP2
69900;SDS011;57183;50.930;5.406;2022-07-29T00:01:47;4.15;;;3.03;;
69900;SDS011;57183;50.930;5.406;2022-07-29T00:04:13;5.05;;;2.88;;
69900;SDS011;57183;50.930;5.406;2022-07-29T00:06:39;7.10;;;2.80;;
69900;SDS011;57183;50.930;5.406;2022-07-29T00:09:05;4.28;;;2.65;;
69900;SDS011;57183;50.930;5.406;2022-07-29T00:11:30;4.60;;;3.03;;
69900;SDS011;57183;50.930;5.406;2022-07-29T00:13:56;3.05;;;2.50;;
69900;SDS011;57183;50.930;5.406;2022-07-29T00:16:22;5.32;;;3.00;;
69900;SDS011;57183;50.930;5.406;2022-07-29T00:18:48;9.35;;;3.47;;
69900;SDS011;57183;50.930;5.406;2022-07-29T00:21:13;6.93;;;3.28;;
69900;SDS011;57183;50.930;5.406;2022-07-29T00:23:39;4.35;;;3.15;;
69900;SDS011;57183;50.930;5.406;2022-07-29T00:26:05;8.05;;;2.72;;
69900;SDS011;57183;50.930;5.406;2022-07-29T00:28:31;3.55;;;2.33;;
69900;SDS011;57183;50.930;5.406;2022-07-29T00:30:57;5.40;;;2.45;;
69900;SDS011;57183;50.930;5.406;2022-07-29T00:33:22;6.75;;;2.90;;
69900;SDS011;57183;50.930;5.406;2022-07-29T00:35:48;4.25;;;2.25;;
69900;SDS011;57183;50.930;5.406;2022-07-29T00:38:16;4.13;;;2.45;;
69900;SDS011;57183;50.930;5.406;2022-07-29T00:40:43;3.50;;;2.53;;
69900;SDS011;57183;50.930;5.406;2022-07-29T00:43:09;7.28;;;2.85;;
69900;SDS011;57183;50.930;5.406;2022-07-29T00:45:35;3.38;;;2.63;;
69900;SDS011;57183;50.930;5.406;2022-07-29T00:48:01;5.05;;;2.83;;
69900;SDS011;57183;50.930;5.406;2022-07-29T00:50:29;5.45;;;2.78;;
69900;SDS011;57183;50.930;5.406;2022-07-29T00:52:55;6.60;;;3.15;;
69900;SDS011;57183;50.930;5.406;2022-07-29T00:55:21;6.57;;;2.95;;
69900;SDS011;57183;50.930;5.406;2022-07-29T00:57:47;4.22;;;2.65;;
69900;SDS011;57183;50.930;5.406;2022-07-29T01:00:15;3.92;;;2.53;;
69900;SDS011;57183;50.930;5.406;2022-07-29T01:02:43;5.05;;;2.40;;
69900;SDS011;57183;50.930;5.406;2022-07-29T01:05:09;4.88;;;2.65;;
69900;SDS011;57183;50.930;5.406;2022-07-29T01:07:37;4.05;;;2.22;;
69900;SDS011;57183;50.930;5.406;2022-07-29T01:10:04;12.70;;;2.75;;
69900;SDS011;57183;50.930;5.406;2022-07-29T01:12:33;5.65;;;2.83;;
69900;SDS011;57183;50.930;5.406;2022-07-29T01:15:00;4.90;;;2.90;;
69900;SDS011;57183;50.930;5.406;2022-07-29T01:17:49;4.03;;;2.13;;
69900;SDS011;57183;50.930;5.406;2022-07-29T01:31:15;4.80;;;2.42;;
69900;SDS011;57183;50.930;5.406;2022-07-29T01:33:45;3.13;;;2.33;;
69900;SDS011;57183;50.930;5.406;2022-07-29T01:36:26;6.38;;;2.70;;
69900;SDS011;57183;50.930;5.406;2022-07-29T01:41:49;4.88;;;2.83;;
69900;SDS011;57183;50.930;5.406;2022-07-29T01:44:20;4.43;;;2.80;;
69900;SDS011;57183;50.930;5.406;2022-07-29T01:46:52;4.65;;;2.88;;
69900;SDS011;57183;50.930;5.406;2022-07-29T01:49:21;10.43;;;3.83;;
69900;SDS011;57183;50.930;5.406;2022-07-29T01:51:53;8.95;;;3.80;;
69900;SDS011;57183;50.930;5.406;2022-07-29T01:54:44;5.35;;;3.58;;
69900;SDS011;57183;50.930;5.406;2022-07-29T01:57:14;6.65;;;3.72;;
69900;SDS011;57183;50.930;5.406;2022-07-29T01:59:45;7.72;;;3.67;;
69900;SDS011;57183;50.930;5.406;2022-07-29T02:02:12;6.45;;;2.90;;
69900;SDS011;57183;50.930;5.406;2022-07-29T02:04:41;5.30;;;3.05;;
69900;SDS011;57183;50.930;5.406;2022-07-29T02:07:10;7.40;;;3.80;;
69900;SDS011;57183;50.930;5.406;2022-07-29T02:09:39;5.10;;;4.07;;
69900;SDS011;57183;50.930;5.406;2022-07-29T02:12:06;10.25;;;3.60;;
69900;SDS011;57183;50.930;5.406;2022-07-29T02:14:36;7.65;;;4.25;;
69900;SDS011;57183;50.930;5.406;2022-07-29T02:17:07;10.98;;;3.58;;
69900;SDS011;57183;50.930;5.406;2022-07-29T02:19:33;6.07;;;4.07;;
69900;SDS011;57183;50.930;5.406;2022-07-29T02:22:02;6.53;;;3.40;;
69900;SDS011;57183;50.930;5.406;2022-07-29T02:24:30;6.82;;;3.78;;
69900;SDS011;57183;50.930;5.406;2022-07-29T02:26:56;7.47;;;2.80;;
69900;SDS011;57183;50.930;5.406;2022-07-29T02:29:26;6.30;;;3.90;;
69900;SDS011;57183;50.930;5.406;2022-07-29T02:31:53;8.20;;;3.63;;
69900;SDS011;57183;50.930;5.406;2022-07-29T02:34:22;5.57;;;3.15;;
69900;SDS011;57183;50.930;5.406;2022-07-29T02:36:49;11.18;;;4.13;;
69900;SDS011;57183;50.930;5.406;2022-07-29T02:39:15;5.13;;;3.20;;
69900;SDS011;57183;50.930;5.406;2022-07-29T02:41:52;7.85;;;4.28;;
69900;SDS011;57183;50.930;5.406;2022-07-29T02:44:23;6.97;;;3.53;;
69900;SDS011;57183;50.930;5.406;2022-07-29T02:46:51;7.70;;;3.58;;
69900;SDS011;57183;50.930;5.406;2022-07-29T02:52:00;3.65;;;3.30;;
69900;SDS011;57183;50.930;5.406;2022-07-29T02:57:11;4.57;;;3.53;;
69900;SDS011;57183;50.930;5.406;2022-07-29T02:59:44;4.95;;;3.58;;
69900;SDS011;57183;50.930;5.406;2022-07-29T03:02:13;8.43;;;3.70;;
69900;SDS011;57183;50.930;5.406;2022-07-29T03:04:40;8.27;;;3.92;;
69900;SDS011;57183;50.930;5.406;2022-07-29T03:07:07;4.97;;;3.65;;
69900;SDS011;57183;50.930;5.406;2022-07-29T03:09:35;5.60;;;3.60;;
69900;SDS011;57183;50.930;5.406;2022-07-29T03:12:03;6.60;;;3.95;;
69900;SDS011;57183;50.930;5.406;2022-07-29T03:14:29;4.13;;;3.42;;
69900;SDS011;57183;50.930;5.406;2022-07-29T03:16:55;8.75;;;3.80;;
69900;SDS011;57183;50.930;5.406;2022-07-29T03:19:22;9.15;;;4.50;;
69900;SDS011;57183;50.930;5.406;2022-07-29T03:21:47;6.47;;;4.30;;
69900;SDS011;57183;50.930;5.406;2022-07-29T03:24:29;6.20;;;4.78;;
69900;SDS011;57183;50.930;5.406;2022-07-29T03:26:57;5.90;;;3.78;;
69900;SDS011;57183;50.930;5.406;2022-07-29T03:29:23;7.15;;;4.78;;
69900;SDS011;57183;50.930;5.406;2022-07-29T03:31:50;6.47;;;4.28;;
69900;SDS011;57183;50.930;5.406;2022-07-29T03:34:15;6.80;;;3.97;;
69900;SDS011;57183;50.930;5.406;2022-07-29T03:36:41;5.97;;;4.10;;
69900;SDS011;57183;50.930;5.406;2022-07-29T03:39:07;3.88;;;3.00;;
69900;SDS011;57183;50.930;5.406;2022-07-29T03:41:34;6.55;;;3.75;;
69900;SDS011;57183;50.930;5.406;2022-07-29T03:44:01;6.90;;;4.43;;
69900;SDS011;57183;50.930;5.406;2022-07-29T03:46:28;8.88;;;4.75;;
69900;SDS011;57183;50.930;5.406;2022-07-29T03:48:58;8.52;;;4.80;;
69900;SDS011;57183;50.930;5.406;2022-07-29T03:51:26;9.20;;;4.50;;
69900;SDS011;57183;50.930;5.406;2022-07-29T03:53:52;7.15;;;4.38;;
69900;SDS011;57183;50.930;5.406;2022-07-29T03:56:19;5.88;;;4.70;;
69900;SDS011;57183;50.930;5.406;2022-07-29T03:58:48;6.20;;;4.40;;
69900;SDS011;57183;50.930;5.406;2022-07-29T04:01:16;7.75;;;4.60;;
69900;SDS011;57183;50.930;5.406;2022-07-29T04:03:43;5.90;;;4.80;;
69900;SDS011;57183;50.930;5.406;2022-07-29T04:06:12;6.63;;;3.80;;
69900;SDS011;57183;50.930;5.406;2022-07-29T04:08:38;9.25;;;4.85;;
69900;SDS011;57183;50.930;5.406;2022-07-29T04:11:04;8.90;;;6.22;;
69900;SDS011;57183;50.930;5.406;2022-07-29T04:13:30;6.53;;;4.20;;
69900;SDS011;57183;50.930;5.406;2022-07-29T04:15:57;7.50;;;4.78;;
69900;SDS011;57183;50.930;5.406;2022-07-29T04:18:23;5.72;;;4.90;;
69900;SDS011;57183;50.930;5.406;2022-07-29T04:20:49;8.70;;;5.03;;
69900;SDS011;57183;50.930;5.406;2022-07-29T04:23:14;5.47;;;4.97;;
69900;SDS011;57183;50.930;5.406;2022-07-29T04:25:40;9.95;;;5.00;;
69900;SDS011;57183;50.930;5.406;2022-07-29T04:28:07;6.28;;;4.25;;
69900;SDS011;57183;50.930;5.406;2022-07-29T04:30:34;11.13;;;4.75;;
69900;SDS011;57183;50.930;5.406;2022-07-29T04:33:01;7.30;;;4.78;;
69900;SDS011;57183;50.930;5.406;2022-07-29T04:35:28;5.50;;;4.53;;
69900;SDS011;57183;50.930;5.406;2022-07-29T04:37:54;4.82;;;4.05;;
69900;SDS011;57183;50.930;5.406;2022-07-29T04:40:20;5.10;;;4.60;;
69900;SDS011;57183;50.930;5.406;2022-07-29T04:42:46;5.60;;;4.28;;
69900;SDS011;57183;50.930;5.406;2022-07-29T04:45:11;5.45;;;4.53;;
69900;SDS011;57183;50.930;5.406;2022-07-29T04:47:37;9.63;;;5.65;;
69900;SDS011;57183;50.930;5.406;2022-07-29T04:50:03;8.23;;;5.32;;
69900;SDS011;57183;50.930;5.406;2022-07-29T04:52:30;8.25;;;4.50;;
69900;SDS011;57183;50.930;5.406;2022-07-29T04:54:56;8.02;;;4.90;;
69900;SDS011;57183;50.930;5.406;2022-07-29T04:57:22;7.63;;;4.85;;
69900;SDS011;57183;50.930;5.406;2022-07-29T04:59:47;6.65;;;5.32;;
69900;SDS011;57183;50.930;5.406;2022-07-29T05:02:14;6.45;;;5.07;;
69900;SDS011;57183;50.930;5.406;2022-07-29T05:04:39;9.70;;;5.43;;
69900;SDS011;57183;50.930;5.406;2022-07-29T05:07:05;7.03;;;5.00;;
69900;SDS011;57183;50.930;5.406;2022-07-29T05:09:30;8.30;;;6.22;;
69900;SDS011;57183;50.930;5.406;2022-07-29T05:11:57;6.95;;;4.68;;
69900;SDS011;57183;50.930;5.406;2022-07-29T05:14:23;5.68;;;5.03;;
69900;SDS011;57183;50.930;5.406;2022-07-29T05:16:48;9.18;;;5.20;;
69900;SDS011;57183;50.930;5.406;2022-07-29T05:19:16;10.38;;;5.47;;
69900;SDS011;57183;50.930;5.406;2022-07-29T05:21:42;10.80;;;6.00;;
69900;SDS011;57183;50.930;5.406;2022-07-29T05:24:09;11.82;;;6.47;;
69900;SDS011;57183;50.930;5.406;2022-07-29T05:26:35;8.60;;;5.28;;
69900;SDS011;57183;50.930;5.406;2022-07-29T05:29:00;5.82;;;5.25;;
69900;SDS011;57183;50.930;5.406;2022-07-29T05:31:26;5.85;;;4.45;;
69900;SDS011;57183;50.930;5.406;2022-07-29T05:33:52;6.82;;;5.93;;
69900;SDS011;57183;50.930;5.406;2022-07-29T05:36:17;10.90;;;5.80;;
69900;SDS011;57183;50.930;5.406;2022-07-29T05:38:43;10.00;;;5.10;;
69900;SDS011;57183;50.930;5.406;2022-07-29T05:41:09;7.15;;;6.40;;
69900;SDS011;57183;50.930;5.406;2022-07-29T05:43:34;8.50;;;5.55;;
69900;SDS011;57183;50.930;5.406;2022-07-29T05:46:00;9.82;;;6.35;;
69900;SDS011;57183;50.930;5.406;2022-07-29T05:48:25;10.82;;;6.45;;
69900;SDS011;57183;50.930;5.406;2022-07-29T05:50:51;9.98;;;5.03;;
69900;SDS011;57183;50.930;5.406;2022-07-29T05:53:17;7.25;;;5.85;;
69900;SDS011;57183;50.930;5.406;2022-07-29T05:55:43;6.55;;;5.95;;
69900;SDS011;57183;50.930;5.406;2022-07-29T05:58:08;8.68;;;6.10;;
69900;SDS011;57183;50.930;5.406;2022-07-29T06:00:34;8.55;;;6.80;;
69900;SDS011;57183;50.930;5.406;2022-07-29T06:03:00;6.85;;;6.25;;
69900;SDS011;57183;50.930;5.406;2022-07-29T06:05:26;6.63;;;5.93;;
69900;SDS011;57183;50.930;5.406;2022-07-29T06:07:51;11.30;;;6.38;;
69900;SDS011;57183;50.930;5.406;2022-07-29T06:10:18;8.23;;;6.38;;
69900;SDS011;57183;50.930;5.406;2022-07-29T06:12:44;9.45;;;6.07;;
69900;SDS011;57183;50.930;5.406;2022-07-29T06:15:09;7.82;;;6.55;;
69900;SDS011;57183;50.930;5.406;2022-07-29T06:17:35;9.75;;;5.80;;
69900;SDS011;57183;50.930;5.406;2022-07-29T06:20:01;7.07;;;5.43;;
69900;SDS011;57183;50.930;5.406;2022-07-29T06:22:27;8.25;;;5.85;;
69900;SDS011;57183;50.930;5.406;2022-07-29T06:24:53;5.65;;;5.03;;
69900;SDS011;57183;50.930;5.406;2022-07-29T06:27:19;10.20;;;6.35;;
69900;SDS011;57183;50.930;5.406;2022-07-29T06:29:45;9.23;;;5.85;;
69900;SDS011;57183;50.930;5.406;2022-07-29T06:32:10;8.27;;;6.22;;
69900;SDS011;57183;50.930;5.406;2022-07-29T06:34:36;9.65;;;5.47;;
69900;SDS011;57183;50.930;5.406;2022-07-29T06:37:08;7.30;;;6.30;;
69900;SDS011;57183;50.930;5.406;2022-07-29T06:39:35;8.98;;;6.15;;
69900;SDS011;57183;50.930;5.406;2022-07-29T06:42:01;8.68;;;6.15;;
69900;SDS011;57183;50.930;5.406;2022-07-29T06:44:28;6.82;;;6.13;;
69900;SDS011;57183;50.930;5.406;2022-07-29T06:46:54;7.57;;;6.82;;
69900;SDS011;57183;50.930;5.406;2022-07-29T06:49:20;7.20;;;6.50;;
69900;SDS011;57183;50.930;5.406;2022-07-29T06:51:46;10.75;;;7.05;;
69900;SDS011;57183;50.930;5.406;2022-07-29T06:54:12;7.70;;;5.97;;
69900;SDS011;57183;50.930;5.406;2022-07-29T06:56:38;6.70;;;6.20;;
69900;SDS011;57183;50.930;5.406;2022-07-29T06:59:10;7.03;;;5.78;;
69900;SDS011;57183;50.930;5.406;2022-07-29T07:01:37;7.72;;;7.03;;
69900;SDS011;57183;50.930;5.406;2022-07-29T07:04:04;7.72;;;6.68;;
69900;SDS011;57183;50.930;5.406;2022-07-29T07:06:29;9.07;;;6.43;;
69900;SDS011;57183;50.930;5.406;2022-07-29T07:08:55;6.50;;;5.30;;
69900;SDS011;57183;50.930;5.406;2022-07-29T07:11:21;7.55;;;6.72;;
69900;SDS011;57183;50.930;5.406;2022-07-29T07:13:47;7.13;;;6.40;;
69900;SDS011;57183;50.930;5.406;2022-07-29T07:16:12;7.40;;;6.13;;
69900;SDS011;57183;50.930;5.406;2022-07-29T07:18:38;7.22;;;6.03;;
69900;SDS011;57183;50.930;5.406;2022-07-29T07:21:04;7.07;;;6.45;;
69900;SDS011;57183;50.930;5.406;2022-07-29T07:23:30;6.78;;;5.03;;
69900;SDS011;57183;50.930;5.406;2022-07-29T07:25:56;8.20;;;7.03;;
69900;SDS011;57183;50.930;5.406;2022-07-29T07:28:22;9.25;;;6.55;;
69900;SDS011;57183;50.930;5.406;2022-07-29T07:30:48;7.28;;;5.55;;
69900;SDS011;57183;50.930;5.406;2022-07-29T07:33:13;7.28;;;6.07;;
69900;SDS011;57183;50.930;5.406;2022-07-29T07:35:40;6.55;;;5.93;;
69900;SDS011;57183;50.930;5.406;2022-07-29T07:38:06;7.07;;;6.43;;
69900;SDS011;57183;50.930;5.406;2022-07-29T07:40:31;6.43;;;5.60;;
69900;SDS011;57183;50.930;5.406;2022-07-29T07:42:57;6.38;;;5.78;;
69900;SDS011;57183;50.930;5.406;2022-07-29T07:45:23;6.30;;;5.13;;
69900;SDS011;57183;50.930;5.406;2022-07-29T07:47:48;7.32;;;5.72;;
69900;SDS011;57183;50.930;5.406;2022-07-29T07:50:14;5.93;;;5.05;;
69900;SDS011;57183;50.930;5.406;2022-07-29T07:52:49;7.03;;;5.75;;
69900;SDS011;57183;50.930;5.406;2022-07-29T07:55:17;5.18;;;4.72;;
69900;SDS011;57183;50.930;5.406;2022-07-29T07:57:44;8.40;;;5.57;;
69900;SDS011;57183;50.930;5.406;2022-07-29T08:00:10;8.10;;;4.95;;
69900;SDS011;57183;50.930;5.406;2022-07-29T08:02:37;4.55;;;4.18;;
69900;SDS011;57183;50.930;5.406;2022-07-29T08:05:04;5.38;;;4.88;;
69900;SDS011;57183;50.930;5.406;2022-07-29T08:07:31;5.00;;;4.60;;
69900;SDS011;57183;50.930;5.406;2022-07-29T08:09:57;5.55;;;4.30;;
69900;SDS011;57183;50.930;5.406;2022-07-29T08:12:23;6.05;;;4.28;;
69900;SDS011;57183;50.930;5.406;2022-07-29T08:14:48;4.80;;;4.22;;
69900;SDS011;57183;50.930;5.406;2022-07-29T08:17:14;6.47;;;4.40;;
69900;SDS011;57183;50.930;5.406;2022-07-29T08:19:39;5.15;;;4.43;;
69900;SDS011;57183;50.930;5.406;2022-07-29T08:22:05;6.65;;;4.82;;
69900;SDS011;57183;50.930;5.406;2022-07-29T08:24:31;6.45;;;4.20;;
69900;SDS011;57183;50.930;5.406;2022-07-29T08:27:12;7.15;;;4.95;;
69900;SDS011;57183;50.930;5.406;2022-07-29T08:29:39;8.05;;;4.43;;
69900;SDS011;57183;50.930;5.406;2022-07-29T08:32:05;7.80;;;3.67;;
69900;SDS011;57183;50.930;5.406;2022-07-29T08:34:31;5.30;;;3.45;;
69900;SDS011;57183;50.930;5.406;2022-07-29T08:36:57;7.95;;;4.72;;
69900;SDS011;57183;50.930;5.406;2022-07-29T08:39:23;4.32;;;3.75;;
69900;SDS011;57183;50.930;5.406;2022-07-29T08:41:49;7.47;;;3.92;;
69900;SDS011;57183;50.930;5.406;2022-07-29T08:44:19;8.45;;;3.78;;
69900;SDS011;57183;50.930;5.406;2022-07-29T08:46:46;5.20;;;3.83;;
69900;SDS011;57183;50.930;5.406;2022-07-29T08:49:12;4.32;;;3.92;;
69900;SDS011;57183;50.930;5.406;2022-07-29T08:51:39;5.22;;;3.70;;
69900;SDS011;57183;50.930;5.406;2022-07-29T08:54:05;6.38;;;3.63;;
69900;SDS011;57183;50.930;5.406;2022-07-29T08:56:33;6.68;;;4.28;;
69900;SDS011;57183;50.930;5.406;2022-07-29T08:58:59;7.35;;;3.67;;
69900;SDS011;57183;50.930;5.406;2022-07-29T09:01:33;7.40;;;3.88;;
69900;SDS011;57183;50.930;5.406;2022-07-29T09:04:02;6.78;;;3.85;;
69900;SDS011;57183;50.930;5.406;2022-07-29T09:06:30;8.32;;;4.00;;
69900;SDS011;57183;50.930;5.406;2022-07-29T09:08:59;6.60;;;3.75;;
69900;SDS011;57183;50.930;5.406;2022-07-29T09:11:25;4.85;;;3.17;;
69900;SDS011;57183;50.930;5.406;2022-07-29T09:13:51;6.88;;;3.53;;
69900;SDS011;57183;50.930;5.406;2022-07-29T09:16:17;4.00;;;3.58;;
69900;SDS011;57183;50.930;5.406;2022-07-29T09:18:43;6.38;;;2.75;;
69900;SDS011;57183;50.930;5.406;2022-07-29T09:21:11;5.05;;;2.70;;
69900;SDS011;57183;50.930;5.406;2022-07-29T09:24:11;5.40;;;3.00;;
69900;SDS011;57183;50.930;5.406;2022-07-29T09:26:44;5.78;;;3.13;;
69900;SDS011;57183;50.930;5.406;2022-07-29T09:29:20;5.78;;;2.90;;
69900;SDS011;57183;50.930;5.406;2022-07-29T09:31:48;4.50;;;2.88;;
69900;SDS011;57183;50.930;5.406;2022-07-29T09:34:26;4.32;;;2.88;;
69900;SDS011;57183;50.930;5.406;2022-07-29T09:36:56;4.47;;;2.92;;
69900;SDS011;57183;50.930;5.406;2022-07-29T09:42:03;3.63;;;2.60;;
69900;SDS011;57183;50.930;5.406;2022-07-29T09:45:04;5.28;;;3.67;;
69900;SDS011;57183;50.930;5.406;2022-07-29T09:47:23;3.45;;;3.15;;
69900;SDS011;57183;50.930;5.406;2022-07-29T09:50:13;5.13;;;3.13;;
69900;SDS011;57183;50.930;5.406;2022-07-29T09:52:50;5.80;;;2.67;;
69900;SDS011;57183;50.930;5.406;2022-07-29T09:55:18;3.63;;;2.75;;
69900;SDS011;57183;50.930;5.406;2022-07-29T09:57:45;6.90;;;3.25;;
69900;SDS011;57183;50.930;5.406;2022-07-29T10:00:18;6.18;;;3.47;;
69900;SDS011;57183;50.930;5.406;2022-07-29T10:02:46;4.13;;;3.15;;
69900;SDS011;57183;50.930;5.406;2022-07-29T10:05:19;5.68;;;3.53;;
69900;SDS011;57183;50.930;5.406;2022-07-29T10:12:58;3.13;;;2.83;;
69900;SDS011;57183;50.930;5.406;2022-07-29T10:15:29;4.28;;;2.65;;
69900;SDS011;57183;50.930;5.406;2022-07-29T10:17:57;4.13;;;2.50;;
69900;SDS011;57183;50.930;5.406;2022-07-29T10:20:23;3.30;;;2.03;;
69900;SDS011;57183;50.930;5.406;2022-07-29T10:22:50;2.97;;;1.95;;
69900;SDS011;57183;50.930;5.406;2022-07-29T10:25:17;2.70;;;2.50;;
69900;SDS011;57183;50.930;5.406;2022-07-29T10:27:46;6.18;;;3.40;;
69900;SDS011;57183;50.930;5.406;2022-07-29T10:30:14;3.78;;;3.20;;
69900;SDS011;57183;50.930;5.406;2022-07-29T10:40:55;2.63;;;2.25;;
69900;SDS011;57183;50.930;5.406;2022-07-29T10:43:51;4.25;;;1.88;;
69900;SDS011;57183;50.930;5.406;2022-07-29T10:46:21;3.70;;;1.67;;
69900;SDS011;57183;50.930;5.406;2022-07-29T11:05:15;5.20;;;2.70;;
69900;SDS011;57183;50.930;5.406;2022-07-29T11:10:37;3.47;;;2.35;;
69900;SDS011;57183;50.930;5.406;2022-07-29T11:13:03;3.97;;;2.90;;
69900;SDS011;57183;50.930;5.406;2022-07-29T11:15:29;4.05;;;2.67;;
69900;SDS011;57183;50.930;5.406;2022-07-29T11:18:22;4.32;;;2.40;;
69900;SDS011;57183;50.930;5.406;2022-07-29T11:20:48;4.07;;;2.05;;
69900;SDS011;57183;50.930;5.406;2022-07-29T11:28:34;4.00;;;1.63;;
69900;SDS011;57183;50.930;5.406;2022-07-29T11:31:31;2.25;;;1.80;;
69900;SDS011;57183;50.930;5.406;2022-07-29T11:39:31;2.58;;;1.85;;
69900;SDS011;57183;50.930;5.406;2022-07-29T11:42:41;3.45;;;1.67;;
69900;SDS011;57183;50.930;5.406;2022-07-29T11:47:38;2.08;;;1.73;;
69900;SDS011;57183;50.930;5.406;2022-07-29T11:50:11;1.75;;;1.50;;
69900;SDS011;57183;50.930;5.406;2022-07-29T11:52:45;2.55;;;1.88;;
69900;SDS011;57183;50.930;5.406;2022-07-29T11:55:13;5.00;;;1.77;;
69900;SDS011;57183;50.930;5.406;2022-07-29T12:00:36;2.17;;;1.40;;
69900;SDS011;57183;50.930;5.406;2022-07-29T12:03:05;1.33;;;1.20;;
69900;SDS011;57183;50.930;5.406;2022-07-29T12:08:17;1.83;;;1.23;;
69900;SDS011;57183;50.930;5.406;2022-07-29T12:10:45;6.15;;;1.40;;
69900;SDS011;57183;50.930;5.406;2022-07-29T12:13:12;1.40;;;1.23;;
69900;SDS011;57183;50.930;5.406;2022-07-29T12:15:40;2.83;;;1.60;;
69900;SDS011;57183;50.930;5.406;2022-07-29T12:18:10;3.08;;;1.40;;
69900;SDS011;57183;50.930;5.406;2022-07-29T12:20:37;2.13;;;1.35;;
69900;SDS011;57183;50.930;5.406;2022-07-29T12:23:07;4.22;;;1.35;;
69900;SDS011;57183;50.930;5.406;2022-07-29T12:25:34;2.95;;;1.52;;
69900;SDS011;57183;50.930;5.406;2022-07-29T12:28:04;4.82;;;1.90;;
69900;SDS011;57183;50.930;5.406;2022-07-29T12:30:35;2.00;;;1.27;;
69900;SDS011;57183;50.930;5.406;2022-07-29T12:33:10;3.78;;;1.65;;
69900;SDS011;57183;50.930;5.406;2022-07-29T12:35:37;1.60;;;1.25;;
69900;SDS011;57183;50.930;5.406;2022-07-29T12:38:04;3.72;;;1.83;;
69900;SDS011;57183;50.930;5.406;2022-07-29T12:40:30;2.42;;;1.50;;
69900;SDS011;57183;50.930;5.406;2022-07-29T12:43:09;3.25;;;1.75;;
69900;SDS011;57183;50.930;5.406;2022-07-29T12:45:38;1.58;;;1.05;;
69900;SDS011;57183;50.930;5.406;2022-07-29T12:48:05;1.60;;;1.30;;
69900;SDS011;57183;50.930;5.406;2022-07-29T12:50:36;3.90;;;1.30;;
69900;SDS011;57183;50.930;5.406;2022-07-29T12:53:16;3.08;;;1.60;;
69900;SDS011;57183;50.930;5.406;2022-07-29T12:55:42;1.83;;;1.60;;
69900;SDS011;57183;50.930;5.406;2022-07-29T12:58:13;3.95;;;1.77;;
69900;SDS011;57183;50.930;5.406;2022-07-29T13:00:57;3.55;;;1.52;;
69900;SDS011;57183;50.930;5.406;2022-07-29T13:03:27;5.60;;;2.03;;
69900;SDS011;57183;50.930;5.406;2022-07-29T13:05:54;2.83;;;1.83;;
69900;SDS011;57183;50.930;5.406;2022-07-29T13:08:19;2.80;;;2.13;;
69900;SDS011;57183;50.930;5.406;2022-07-29T13:10:45;4.75;;;1.85;;
69900;SDS011;57183;50.930;5.406;2022-07-29T13:13:12;2.05;;;1.63;;
69900;SDS011;57183;50.930;5.406;2022-07-29T13:15:40;2.25;;;1.70;;
69900;SDS011;57183;50.930;5.406;2022-07-29T13:20:52;3.40;;;1.90;;
69900;SDS011;57183;50.930;5.406;2022-07-29T13:23:18;2.88;;;1.85;;
69900;SDS011;57183;50.930;5.406;2022-07-29T13:25:44;2.85;;;1.83;;
69900;SDS011;57183;50.930;5.406;2022-07-29T13:28:10;5.47;;;1.70;;
69900;SDS011;57183;50.930;5.406;2022-07-29T13:30:36;3.03;;;1.88;;
69900;SDS011;57183;50.930;5.406;2022-07-29T13:33:04;3.50;;;1.60;;
69900;SDS011;57183;50.930;5.406;2022-07-29T13:35:29;4.18;;;1.55;;
69900;SDS011;57183;50.930;5.406;2022-07-29T13:37:55;3.80;;;1.50;;
69900;SDS011;57183;50.930;5.406;2022-07-29T13:40:21;6.45;;;1.92;;
69900;SDS011;57183;50.930;5.406;2022-07-29T13:42:47;3.08;;;1.75;;
69900;SDS011;57183;50.930;5.406;2022-07-29T13:45:12;4.35;;;1.60;;
69900;SDS011;57183;50.930;5.406;2022-07-29T13:47:38;3.33;;;1.40;;
69900;SDS011;57183;50.930;5.406;2022-07-29T13:50:04;3.03;;;1.65;;
69900;SDS011;57183;50.930;5.406;2022-07-29T13:52:31;2.65;;;1.30;;
69900;SDS011;57183;50.930;5.406;2022-07-29T13:54:57;4.90;;;1.50;;
69900;SDS011;57183;50.930;5.406;2022-07-29T13:57:22;4.30;;;1.40;;
69900;SDS011;57183;50.930;5.406;2022-07-29T13:59:48;1.90;;;1.20;;
69900;SDS011;57183;50.930;5.406;2022-07-29T14:02:15;3.83;;;1.60;;
69900;SDS011;57183;50.930;5.406;2022-07-29T14:04:41;1.85;;;1.30;;
69900;SDS011;57183;50.930;5.406;2022-07-29T14:07:07;2.10;;;1.45;;
69900;SDS011;57183;50.930;5.406;2022-07-29T14:09:33;1.80;;;1.23;;
69900;SDS011;57183;50.930;5.406;2022-07-29T14:11:58;2.75;;;1.48;;
69900;SDS011;57183;50.930;5.406;2022-07-29T14:14:24;2.97;;;1.65;;
69900;SDS011;57183;50.930;5.406;2022-07-29T14:16:50;3.95;;;1.10;;
69900;SDS011;57183;50.930;5.406;2022-07-29T14:19:15;1.17;;;1.08;;
69900;SDS011;57183;50.930;5.406;2022-07-29T14:21:41;2.65;;;1.50;;
69900;SDS011;57183;50.930;5.406;2022-07-29T14:24:07;1.42;;;1.13;;
69900;SDS011;57183;50.930;5.406;2022-07-29T14:26:32;3.70;;;0.95;;
69900;SDS011;57183;50.930;5.406;2022-07-29T14:28:58;2.55;;;1.20;;
69900;SDS011;57183;50.930;5.406;2022-07-29T14:31:24;4.05;;;1.30;;
69900;SDS011;57183;50.930;5.406;2022-07-29T14:33:49;2.70;;;1.33;;
69900;SDS011;57183;50.930;5.406;2022-07-29T14:36:15;3.33;;;1.35;;
69900;SDS011;57183;50.930;5.406;2022-07-29T14:38:41;2.67;;;1.00;;
69900;SDS011;57183;50.930;5.406;2022-07-29T14:41:07;3.58;;;1.20;;
69900;SDS011;57183;50.930;5.406;2022-07-29T14:43:33;2.15;;;1.40;;
69900;SDS011;57183;50.930;5.406;2022-07-29T14:46:00;2.40;;;1.20;;
69900;SDS011;57183;50.930;5.406;2022-07-29T14:48:26;7.32;;;1.45;;
69900;SDS011;57183;50.930;5.406;2022-07-29T14:50:51;2.88;;;1.45;;
69900;SDS011;57183;50.930;5.406;2022-07-29T14:53:17;3.10;;;1.70;;
69900;SDS011;57183;50.930;5.406;2022-07-29T14:55:43;1.67;;;1.48;;
69900;SDS011;57183;50.930;5.406;2022-07-29T14:58:09;2.47;;;1.42;;
69900;SDS011;57183;50.930;5.406;2022-07-29T15:00:35;3.55;;;1.67;;
69900;SDS011;57183;50.930;5.406;2022-07-29T15:03:02;5.13;;;1.50;;
69900;SDS011;57183;50.930;5.406;2022-07-29T15:05:28;2.28;;;1.70;;
69900;SDS011;57183;50.930;5.406;2022-07-29T15:07:57;4.80;;;1.33;;
69900;SDS011;57183;50.930;5.406;2022-07-29T15:10:23;3.72;;;1.63;;
69900;SDS011;57183;50.930;5.406;2022-07-29T15:12:51;3.10;;;1.92;;
69900;SDS011;57183;50.930;5.406;2022-07-29T15:15:17;5.65;;;1.67;;
69900;SDS011;57183;50.930;5.406;2022-07-29T15:17:43;3.78;;;1.50;;
69900;SDS011;57183;50.930;5.406;2022-07-29T15:20:09;2.63;;;1.38;;
69900;SDS011;57183;50.930;5.406;2022-07-29T15:22:36;8.25;;;1.73;;
69900;SDS011;57183;50.930;5.406;2022-07-29T15:25:03;4.20;;;1.70;;
69900;SDS011;57183;50.930;5.406;2022-07-29T15:27:29;3.85;;;1.33;;
69900;SDS011;57183;50.930;5.406;2022-07-29T15:29:55;8.02;;;1.73;;
69900;SDS011;57183;50.930;5.406;2022-07-29T15:32:21;4.85;;;1.45;;
69900;SDS011;57183;50.930;5.406;2022-07-29T15:34:46;4.57;;;1.10;;
69900;SDS011;57183;50.930;5.406;2022-07-29T15:37:12;2.63;;;1.40;;
69900;SDS011;57183;50.930;5.406;2022-07-29T15:39:38;3.42;;;1.27;;
69900;SDS011;57183;50.930;5.406;2022-07-29T15:42:03;1.92;;;1.38;;
69900;SDS011;57183;50.930;5.406;2022-07-29T15:44:29;2.67;;;1.38;;
69900;SDS011;57183;50.930;5.406;2022-07-29T15:46:55;2.80;;;1.58;;
69900;SDS011;57183;50.930;5.406;2022-07-29T15:49:37;3.05;;;1.42;;
69900;SDS011;57183;50.930;5.406;2022-07-29T15:52:07;3.35;;;1.20;;
69900;SDS011;57183;50.930;5.406;2022-07-29T15:54:34;3.20;;;1.60;;
69900;SDS011;57183;50.930;5.406;2022-07-29T15:57:02;1.88;;;0.93;;
69900;SDS011;57183;50.930;5.406;2022-07-29T15:59:28;4.20;;;1.40;;
69900;SDS011;57183;50.930;5.406;2022-07-29T16:01:54;4.43;;;1.50;;
69900;SDS011;57183;50.930;5.406;2022-07-29T16:04:20;2.90;;;1.00;;
69900;SDS011;57183;50.930;5.406;2022-07-29T16:06:46;6.90;;;1.33;;
69900;SDS011;57183;50.930;5.406;2022-07-29T16:09:13;2.22;;;1.48;;